createdAt,value
2022-11-28T00:01:21.227Z,33.80
2022-11-28T00:03:53.713Z,30.30
2022-11-28T00:06:26.757Z,30.30
2022-11-28T00:09:00.929Z,30.50
2022-11-28T00:11:33.408Z,31.50
2022-11-28T00:14:05.989Z,35.20
2022-11-28T00:16:38.594Z,32.20
2022-11-28T00:19:11.755Z,34.00
2022-11-28T00:21:44.777Z,31.10
2022-11-28T00:24:17.231Z,37.80
2022-11-28T00:26:49.717Z,36.60
2022-11-28T00:29:22.552Z,35.40
2022-11-28T00:31:55.209Z,33.40
2022-11-28T00:34:27.882Z,34.80
2022-11-28T00:37:00.602Z,31.90
2022-11-28T00:42:04.007Z,32.40
2022-11-28T00:44:36.931Z,32.30
2022-11-28T00:49:40.283Z,30.20
2022-11-28T00:52:12.980Z,34.50
2022-11-28T00:54:45.470Z,34.00
2022-11-28T00:57:17.879Z,34.80
2022-11-28T00:59:50.403Z,34.90
2022-11-28T01:02:22.922Z,35.30
2022-11-28T01:04:55.529Z,31.80
2022-11-28T01:07:28.771Z,35.20
2022-11-28T01:10:01.478Z,36.00
2022-11-28T01:12:34.002Z,35.60
2022-11-28T01:15:07.784Z,37.00
2022-11-28T01:17:40.445Z,33.60
2022-11-28T01:20:15.054Z,32.30
2022-11-28T01:22:47.456Z,31.60
2022-11-28T01:25:19.915Z,33.30
2022-11-28T01:27:52.457Z,31.60
2022-11-28T01:30:24.972Z,33.50
2022-11-28T01:32:57.551Z,33.60
2022-11-28T01:35:30.053Z,32.70
2022-11-28T01:38:02.445Z,34.50
2022-11-28T01:40:34.942Z,31.20
2022-11-28T01:43:10.327Z,37.70
2022-11-28T01:45:43.016Z,33.40
2022-11-28T01:48:19.955Z,32.20
2022-11-28T01:50:56.329Z,37.50
2022-11-28T01:53:29.768Z,33.60
2022-11-28T01:56:05.017Z,33.00
2022-11-28T01:58:39.966Z,34.90
2022-11-28T02:01:13.314Z,33.50
2022-11-28T02:03:47.720Z,30.10
2022-11-28T02:06:21.905Z,31.70
2022-11-28T02:08:55.476Z,34.00
2022-11-28T02:11:52.203Z,30.50
2022-11-28T02:14:35.788Z,33.30
2022-11-28T02:17:15.684Z,29.80
2022-11-28T02:20:23.037Z,29.50
2022-11-28T02:23:02.371Z,30.20
2022-11-28T02:26:05.908Z,30.70
2022-11-28T02:29:03.419Z,30.20
2022-11-28T02:32:11.501Z,27.30
2022-11-28T02:34:50.061Z,30.10
2022-11-28T02:37:30.633Z,30.00
2022-11-28T02:40:10.723Z,26.80
2022-11-28T02:42:51.463Z,29.90
2022-11-28T02:45:29.264Z,27.50
2022-11-28T02:48:05.538Z,25.70
2022-11-28T02:50:42.087Z,29.50
2022-11-28T02:53:17.611Z,23.30
2022-11-28T02:55:52.435Z,27.10
2022-11-28T02:58:24.929Z,29.20
2022-11-28T03:00:57.870Z,27.60
2022-11-28T03:03:41.269Z,25.20
2022-11-28T03:06:20.314Z,26.70
2022-11-28T03:09:11.492Z,29.20
2022-11-28T03:11:51.258Z,26.10
2022-11-28T03:14:33.263Z,26.80
2022-11-28T03:17:12.244Z,27.60
2022-11-28T03:19:48.480Z,25.80
2022-11-28T03:22:28.114Z,25.00
2022-11-28T03:25:14.107Z,30.30
2022-11-28T03:27:48.495Z,29.50
2022-11-28T03:30:25.587Z,29.40
2022-11-28T03:32:59.457Z,30.60
2022-11-28T03:35:34.775Z,28.20
2022-11-28T03:38:11.457Z,22.90
2022-11-28T03:40:46.884Z,28.10
2022-11-28T03:43:23.604Z,26.90
2022-11-28T03:46:00.251Z,24.90
2022-11-28T03:48:35.886Z,25.10
2022-11-28T03:51:10.976Z,24.40
2022-11-28T03:53:52.198Z,28.60
2022-11-28T03:56:27.992Z,27.70
2022-11-28T03:59:03.518Z,27.80
2022-11-28T04:01:41.273Z,29.40
2022-11-28T04:04:17.590Z,26.70
2022-11-28T04:06:57.156Z,30.00
2022-11-28T04:09:41.072Z,33.00
2022-11-28T04:12:22.449Z,28.70
2022-11-28T04:14:57.379Z,33.60
2022-11-28T04:17:33.687Z,28.90
2022-11-28T04:20:10.030Z,39.10
2022-11-28T04:22:47.826Z,30.60
2022-11-28T04:25:23.060Z,34.10
2022-11-28T04:27:59.240Z,34.00
2022-11-28T04:30:31.752Z,40.30
2022-11-28T04:33:07.522Z,33.20
2022-11-28T04:35:41.493Z,38.00
2022-11-28T04:38:15.192Z,34.30
2022-11-28T04:40:52.548Z,34.70
2022-11-28T04:43:38.657Z,34.40
2022-11-28T04:46:14.533Z,32.80
2022-11-28T04:48:47.290Z,38.40
2022-11-28T04:53:55.805Z,38.60
2022-11-28T04:56:32.937Z,40.90
2022-11-28T04:59:08.777Z,41.50
2022-11-28T05:01:42.090Z,39.40
2022-11-28T05:04:17.307Z,39.30
2022-11-28T05:06:50.239Z,41.50
2022-11-28T05:11:53.973Z,42.90
2022-11-28T05:14:26.741Z,40.00
2022-11-28T05:19:30.154Z,44.30
2022-11-28T05:22:02.631Z,43.50
2022-11-28T05:24:35.171Z,42.30
2022-11-28T05:27:08.052Z,47.20
2022-11-28T05:32:21.960Z,42.20
2022-11-28T05:34:54.628Z,46.80
2022-11-28T05:37:27.166Z,41.90
2022-11-28T05:39:59.705Z,48.30
2022-11-28T05:42:35.036Z,46.90
2022-11-28T05:45:08.947Z,45.40
2022-11-28T05:47:41.477Z,49.10
2022-11-28T05:50:14.722Z,42.10
2022-11-28T05:52:47.262Z,47.60
2022-11-28T05:55:20.562Z,41.80
2022-11-28T05:57:54.046Z,47.70
2022-11-28T06:00:29.716Z,46.20
2022-11-28T06:03:07.097Z,43.80
2022-11-28T06:05:43.847Z,42.60
2022-11-28T06:08:18.627Z,42.00
2022-11-28T06:10:59.818Z,42.10
2022-11-28T06:13:34.294Z,42.90
2022-11-28T06:16:11.012Z,43.20
2022-11-28T06:18:44.196Z,39.00
2022-11-28T06:21:17.804Z,45.30
2022-11-28T06:23:50.625Z,46.70
2022-11-28T06:26:24.732Z,38.70
2022-11-28T06:28:58.927Z,42.70
2022-11-28T06:31:34.811Z,42.00
2022-11-28T06:34:08.011Z,46.90
2022-11-28T06:36:46.012Z,43.10
2022-11-28T06:39:24.568Z,44.30
2022-11-28T06:41:57.075Z,38.60
2022-11-28T06:44:31.726Z,36.80
2022-11-28T06:47:04.218Z,38.70
2022-11-28T06:49:36.995Z,37.40
2022-11-28T06:54:40.743Z,31.00
2022-11-28T06:57:14.298Z,33.10
2022-11-28T06:59:47.006Z,34.60
2022-11-28T07:02:19.585Z,34.70
2022-11-28T07:04:52.658Z,34.10
2022-11-28T07:07:27.502Z,36.40
2022-11-28T07:10:08.978Z,33.10
2022-11-28T07:12:45.033Z,30.90
2022-11-28T07:15:18.272Z,32.20
2022-11-28T07:17:51.747Z,31.00
2022-11-28T07:20:27.069Z,31.50
2022-11-28T07:23:02.294Z,38.00
2022-11-28T07:25:35.442Z,46.20
2022-11-28T07:28:08.525Z,37.40
2022-11-28T07:30:41.466Z,33.70
2022-11-28T07:33:14.243Z,33.00
2022-11-28T07:35:47.017Z,31.20
2022-11-28T07:40:50.703Z,29.70
2022-11-28T07:43:23.808Z,32.00
2022-11-28T07:46:01.120Z,28.50
2022-11-28T07:48:34.789Z,30.30
2022-11-28T07:51:11.021Z,33.80
2022-11-28T07:53:44.060Z,31.70
2022-11-28T07:56:20.759Z,31.60
2022-11-28T07:58:54.469Z,29.70
2022-11-28T08:01:31.053Z,30.80
2022-11-28T08:04:04.017Z,32.20
2022-11-28T08:06:39.640Z,29.10
2022-11-28T08:09:13.788Z,30.50
2022-11-28T08:11:48.377Z,28.50
2022-11-28T08:14:25.745Z,30.60
2022-11-28T08:16:58.460Z,30.20
2022-11-28T08:19:37.374Z,32.70
2022-11-28T08:22:12.495Z,28.40
2022-11-28T08:24:51.400Z,28.60
2022-11-28T08:27:43.686Z,24.70
2022-11-28T08:30:22.890Z,26.50
2022-11-28T08:33:09.914Z,28.80
2022-11-28T08:35:48.806Z,27.40
2022-11-28T08:38:26.508Z,28.80
2022-11-28T08:41:05.446Z,27.40
2022-11-28T08:43:46.607Z,28.00
2022-11-28T08:46:38.624Z,26.50
2022-11-28T08:49:18.589Z,26.80
2022-11-28T08:51:53.427Z,29.30
2022-11-28T08:54:28.604Z,29.70
2022-11-28T08:57:10.210Z,26.80
2022-11-28T08:59:49.779Z,31.10
2022-11-28T09:02:25.914Z,34.30
2022-11-28T09:05:07.718Z,29.10
2022-11-28T09:07:40.362Z,28.70
2022-11-28T09:10:13.945Z,30.20
2022-11-28T09:12:48.196Z,28.40
2022-11-28T09:15:25.152Z,27.00
2022-11-28T09:17:58.233Z,28.50
2022-11-28T09:20:31.334Z,26.40
2022-11-28T09:23:03.957Z,25.70
2022-11-28T09:25:37.987Z,26.60
2022-11-28T09:28:10.619Z,29.30
2022-11-28T09:30:43.363Z,31.90
2022-11-28T09:33:15.993Z,27.70
2022-11-28T09:35:48.646Z,30.40
2022-11-28T09:38:21.524Z,33.30
2022-11-28T09:40:54.776Z,37.70
2022-11-28T09:43:32.914Z,27.30
2022-11-28T09:46:07.638Z,32.30
2022-11-28T09:48:43.182Z,31.40
2022-11-28T09:51:31.291Z,30.90
2022-11-28T09:54:11.292Z,37.20
2022-11-28T09:56:43.909Z,46.80
2022-11-28T09:59:20.956Z,27.30
2022-11-28T10:02:00.813Z,34.90
2022-11-28T10:04:39.538Z,29.00
2022-11-28T10:07:17.240Z,27.20
2022-11-28T10:09:57.638Z,30.50
2022-11-28T10:12:39.511Z,24.80
2022-11-28T10:15:22.130Z,26.10
2022-11-28T10:18:06.095Z,24.40
2022-11-28T10:20:40.881Z,25.50
2022-11-28T10:23:21.469Z,24.50
2022-11-28T10:25:56.282Z,24.50
2022-11-28T10:28:31.221Z,25.10
2022-11-28T10:31:05.786Z,25.20
2022-11-28T10:33:45.198Z,26.80
2022-11-28T10:36:22.801Z,24.90
2022-11-28T10:38:55.871Z,27.80
2022-11-28T10:41:33.217Z,22.60
2022-11-28T10:44:09.031Z,24.50
2022-11-28T10:46:52.917Z,26.80
2022-11-28T10:49:33.933Z,22.90
2022-11-28T10:52:13.955Z,23.90
2022-11-28T10:55:04.262Z,23.60
2022-11-28T10:57:40.731Z,21.70
2022-11-28T11:00:15.417Z,21.90
2022-11-28T11:02:49.817Z,21.80
2022-11-28T11:05:25.830Z,22.10
2022-11-28T11:08:00.155Z,23.80
2022-11-28T11:10:37.984Z,23.50
2022-11-28T11:13:19.342Z,21.00
2022-11-28T11:15:53.569Z,20.40
2022-11-28T11:18:28.615Z,27.20
2022-11-28T11:21:15.659Z,25.00
2022-11-28T11:23:50.035Z,24.60
2022-11-28T11:26:43.890Z,23.90
2022-11-28T11:29:35.543Z,23.90
2022-11-28T11:32:18.059Z,23.80
2022-11-28T11:34:50.715Z,23.40
2022-11-28T11:39:58.065Z,26.40
2022-11-28T11:42:32.876Z,20.70
2022-11-28T11:45:27.632Z,25.30
2022-11-28T11:48:00.729Z,23.10
2022-11-28T11:50:36.357Z,24.90
2022-11-28T11:53:14.154Z,23.80
2022-11-28T11:55:51.553Z,24.90
2022-11-28T11:58:27.142Z,22.40
2022-11-28T12:01:01.706Z,22.50
2022-11-28T12:03:38.303Z,21.50
2022-11-28T12:06:15.781Z,21.60
2022-11-28T12:08:52.843Z,23.00
2022-11-28T12:11:29.525Z,20.80
2022-11-28T12:14:11.472Z,21.00
2022-11-28T12:16:50.416Z,23.70
2022-11-28T12:19:27.954Z,20.70
2022-11-28T12:22:09.071Z,23.80
2022-11-28T12:24:49.639Z,21.90
2022-11-28T12:27:31.341Z,21.70
2022-11-28T12:30:26.913Z,23.10
2022-11-28T12:33:08.945Z,24.50
2022-11-28T12:35:44.184Z,24.00
2022-11-28T12:38:31.509Z,19.80
2022-11-28T12:41:20.352Z,21.70
2022-11-28T12:44:03.920Z,21.00
2022-11-28T12:46:45.422Z,20.00
2022-11-28T12:49:21.596Z,22.30
2022-11-28T12:52:03.139Z,20.00
2022-11-28T12:54:48.975Z,20.50
2022-11-28T12:57:26.733Z,19.90
2022-11-28T13:00:08.484Z,19.90
2022-11-28T13:02:54.800Z,17.80
2022-11-28T13:05:48.940Z,17.60
2022-11-28T13:08:49.743Z,19.10
2022-11-28T13:11:40.135Z,19.00
2022-11-28T13:14:20.093Z,20.00
2022-11-28T13:16:54.170Z,20.80
2022-11-28T13:19:36.145Z,20.10
2022-11-28T13:22:13.301Z,18.20
2022-11-28T13:24:52.666Z,19.10
2022-11-28T13:27:33.383Z,18.10
2022-11-28T13:30:16.066Z,17.90
2022-11-28T13:32:53.231Z,16.50
2022-11-28T13:35:26.664Z,19.10
2022-11-28T13:41:01.120Z,21.80
2022-11-28T13:43:43.335Z,22.40
2022-11-28T13:46:17.574Z,18.30
2022-11-28T13:52:26.213Z,18.60
2022-11-28T13:54:59.159Z,18.60
2022-11-28T13:57:36.853Z,17.10
2022-11-28T14:00:23.902Z,17.60
2022-11-28T14:03:00.184Z,21.10
2022-11-28T14:05:35.304Z,18.30
2022-11-28T14:08:08.959Z,17.40
2022-11-28T14:11:05.938Z,19.70
2022-11-28T14:14:01.162Z,16.80
2022-11-28T14:16:50.138Z,18.10
2022-11-28T14:19:34.643Z,20.10
2022-11-28T14:22:17.228Z,19.50
2022-11-28T14:24:58.621Z,18.30
2022-11-28T14:27:34.662Z,19.20
2022-11-28T14:30:09.557Z,18.60
2022-11-28T14:32:43.499Z,17.20
2022-11-28T14:35:23.208Z,18.80
2022-11-28T14:37:57.774Z,17.50
2022-11-28T14:41:09.277Z,19.20
2022-11-28T14:43:42.925Z,19.90
2022-11-28T14:46:34.026Z,26.20
2022-11-28T14:49:24.150Z,22.30
2022-11-28T14:52:41.797Z,20.10
2022-11-28T14:55:25.406Z,19.40
2022-11-28T15:00:36.582Z,21.60
2022-11-28T15:03:26.551Z,25.00
2022-11-28T15:06:03.871Z,20.10
2022-11-28T15:08:45.599Z,21.10
2022-11-28T15:11:58.729Z,22.30
2022-11-28T15:14:32.893Z,22.50
2022-11-28T15:17:08.398Z,18.60
2022-11-28T15:19:44.985Z,18.30
2022-11-28T15:22:31.884Z,22.20
2022-11-28T15:25:04.813Z,22.90
2022-11-28T15:30:20.940Z,23.30
2022-11-28T15:32:53.703Z,19.50
2022-11-28T15:38:00.953Z,20.60
2022-11-28T15:40:37.774Z,25.00
2022-11-28T15:43:20.129Z,20.20
2022-11-28T15:45:59.155Z,24.00
2022-11-28T15:48:40.147Z,24.00
2022-11-28T15:51:32.380Z,18.70
2022-11-28T15:54:19.797Z,19.30
2022-11-28T15:57:15.053Z,23.80
2022-11-28T16:01:07.777Z,18.70
2022-11-28T16:03:38.814Z,21.30
2022-11-28T16:06:12.585Z,18.90
2022-11-28T16:08:54.142Z,21.10
2022-11-28T16:11:32.057Z,22.90
2022-11-28T16:14:10.658Z,20.40
2022-11-28T16:16:56.172Z,21.10
2022-11-28T16:19:40.850Z,19.80
2022-11-28T16:22:21.137Z,19.90
2022-11-28T16:25:23.183Z,21.00
2022-11-28T16:28:33.459Z,20.20
2022-11-28T16:31:29.697Z,19.80
2022-11-28T16:34:12.840Z,17.80
2022-11-28T16:36:48.949Z,27.10
2022-11-28T16:39:21.753Z,20.00
2022-11-28T16:42:07.403Z,25.90
2022-11-28T16:44:40.516Z,24.50
2022-11-28T16:47:30.210Z,21.40
2022-11-28T16:50:20.399Z,22.40
2022-11-28T16:52:55.174Z,24.70
2022-11-28T16:55:46.963Z,24.70
2022-11-28T16:58:23.502Z,22.40
2022-11-28T17:01:05.513Z,22.60
2022-11-28T17:03:52.742Z,22.20
2022-11-28T17:06:34.117Z,25.50
2022-11-28T17:09:08.463Z,24.00
2022-11-28T17:11:44.945Z,25.00
2022-11-28T17:14:18.038Z,28.50
2022-11-28T17:16:50.868Z,24.10
2022-11-28T17:22:07.052Z,27.30
2022-11-28T17:24:49.187Z,26.10
2022-11-28T17:27:27.572Z,27.00
2022-11-28T17:30:01.530Z,25.90
2022-11-28T17:32:33.995Z,25.70
2022-11-28T17:35:07.562Z,25.00
2022-11-28T17:37:40.333Z,24.60
2022-11-28T17:43:18.060Z,26.10
2022-11-28T17:52:50.346Z,28.00
2022-11-28T17:55:25.564Z,30.70
2022-11-28T18:01:49.553Z,28.00
2022-11-28T18:04:25.745Z,26.80
2022-11-28T18:06:58.343Z,30.50
2022-11-28T18:09:31.033Z,30.60
2022-11-28T18:14:39.916Z,33.00
2022-11-28T18:17:14.680Z,28.70
2022-11-28T18:19:52.025Z,31.00
2022-11-28T18:22:34.236Z,26.70
2022-11-28T18:25:20.295Z,26.50
2022-11-28T18:27:53.518Z,25.30
2022-11-28T18:30:38.151Z,25.20
2022-11-28T18:33:43.973Z,28.20
2022-11-28T18:36:23.349Z,30.60
2022-11-28T18:38:59.080Z,30.80
2022-11-28T18:41:32.678Z,28.20
2022-11-28T18:44:06.646Z,26.90
2022-11-28T18:46:43.259Z,28.00
2022-11-28T18:49:26.521Z,28.00
2022-11-28T18:52:37.175Z,24.70
2022-11-28T18:55:20.828Z,27.50
2022-11-28T18:57:57.278Z,29.70
2022-11-28T19:00:42.369Z,26.90
2022-11-28T19:03:18.210Z,26.80
2022-11-28T19:05:53.431Z,28.90
2022-11-28T19:08:25.983Z,24.60
2022-11-28T19:10:58.605Z,27.90
2022-11-28T19:13:31.338Z,26.50
2022-11-28T19:16:07.894Z,28.20
2022-11-28T19:18:42.033Z,24.70
2022-11-28T19:21:21.345Z,35.40
2022-11-28T19:23:55.475Z,24.20
2022-11-28T19:26:29.626Z,27.10
2022-11-28T19:29:04.438Z,23.00
2022-11-28T19:31:38.861Z,24.50
2022-11-28T19:34:16.056Z,25.10
2022-11-28T19:36:51.128Z,26.30
2022-11-28T19:39:25.068Z,22.70
2022-11-28T19:41:58.042Z,27.20
2022-11-28T19:47:02.636Z,26.20
2022-11-28T19:49:35.165Z,25.50
2022-11-28T19:52:07.733Z,25.10
2022-11-28T19:54:40.305Z,25.50
2022-11-28T19:57:13.111Z,25.20
2022-11-28T19:59:46.132Z,25.20
2022-11-28T20:02:21.685Z,26.30
2022-11-28T20:04:55.572Z,26.80
2022-11-28T20:07:28.793Z,25.70
2022-11-28T20:10:02.866Z,26.70
2022-11-28T20:12:36.821Z,27.20
2022-11-28T20:15:16.720Z,25.30
2022-11-28T20:17:51.059Z,26.30
2022-11-28T20:20:23.769Z,27.30
2022-11-28T20:22:57.647Z,24.30
2022-11-28T20:25:30.349Z,23.40
2022-11-28T20:28:04.309Z,23.70
2022-11-28T20:30:41.173Z,27.00
2022-11-28T20:33:13.808Z,22.90
2022-11-28T20:35:46.327Z,20.70
2022-11-28T20:38:20.475Z,21.40
2022-11-28T20:40:53.154Z,24.10
2022-11-28T20:43:30.333Z,27.00
2022-11-28T20:46:07.833Z,21.70
2022-11-28T20:48:42.411Z,24.60
2022-11-28T20:51:17.762Z,21.10
2022-11-28T20:53:50.465Z,22.80
2022-11-28T20:56:24.681Z,21.40
2022-11-28T20:58:58.606Z,21.00
2022-11-28T21:01:34.196Z,24.30
2022-11-28T21:04:08.478Z,19.10
2022-11-28T21:06:41.907Z,21.70
2022-11-28T21:09:14.483Z,20.30
2022-11-28T21:11:57.275Z,21.70
2022-11-28T21:14:30.898Z,22.00
2022-11-28T21:17:04.159Z,18.70
2022-11-28T21:19:36.826Z,19.90
2022-11-28T21:22:09.270Z,19.70
2022-11-28T21:24:41.769Z,20.20
2022-11-28T21:27:14.282Z,19.50
2022-11-28T21:29:47.030Z,18.30
2022-11-28T21:34:53.469Z,18.20
2022-11-28T21:37:26.105Z,17.00
2022-11-28T21:40:00.246Z,19.00
2022-11-28T21:42:34.274Z,18.70
2022-11-28T21:45:07.860Z,18.00
2022-11-28T21:47:40.536Z,17.50
2022-11-28T21:50:15.426Z,18.10
2022-11-28T21:52:48.168Z,18.80
2022-11-28T21:55:20.849Z,20.50
2022-11-28T21:57:53.852Z,16.40
2022-11-28T22:00:52.154Z,19.40
2022-11-28T22:03:19.089Z,19.20
2022-11-28T22:05:52.891Z,17.90
2022-11-28T22:08:25.241Z,16.70
2022-11-28T22:11:01.102Z,19.20
2022-11-28T22:13:34.008Z,21.10
2022-11-28T22:18:38.293Z,18.30
2022-11-28T22:21:49.408Z,19.60
2022-11-28T22:26:35.482Z,16.70
2022-11-28T22:29:08.077Z,17.80
2022-11-28T22:31:40.505Z,15.90
2022-11-28T22:34:13.634Z,18.80
2022-11-28T22:36:45.979Z,18.30
2022-11-28T22:39:18.382Z,18.20
2022-11-28T22:41:50.787Z,16.70
2022-11-28T22:44:23.288Z,18.00
2022-11-28T22:46:55.711Z,17.10
2022-11-28T22:49:28.139Z,16.80
2022-11-28T22:52:00.569Z,18.90
2022-11-28T22:54:33.108Z,18.50
2022-11-28T22:57:05.661Z,17.70
2022-11-28T22:59:38.709Z,19.10
2022-11-28T23:02:11.239Z,16.40
2022-11-28T23:07:16.041Z,19.20
2022-11-28T23:09:48.528Z,16.50
2022-11-28T23:12:20.973Z,18.00
2022-11-28T23:14:53.386Z,19.10
2022-11-28T23:17:26.121Z,19.20
2022-11-28T23:19:58.524Z,16.00
2022-11-28T23:22:30.982Z,20.00
2022-11-28T23:25:03.403Z,19.00
2022-11-28T23:27:35.873Z,18.40
2022-11-28T23:30:10.354Z,15.50
2022-11-28T23:32:42.970Z,17.50
2022-11-28T23:35:15.539Z,21.30
2022-11-28T23:37:47.998Z,17.30
2022-11-28T23:40:20.667Z,18.40
2022-11-28T23:42:53.205Z,16.00
2022-11-28T23:45:25.680Z,16.70
2022-11-28T23:47:58.113Z,15.20
2022-11-28T23:50:32.087Z,18.90
2022-11-28T23:53:04.519Z,17.10
2022-11-28T23:55:37.644Z,17.70
2022-11-28T23:58:10.217Z,16.90
